Time;durP1;ratioP1;P1;durP2;ratioP2;P2;SDS_P1;SDS_P2;PMS_P1;PMS_P2;Temp;Humidity;BMP_temperature;BMP_pressure;BME280_temperature;BME280_humidity;BME280_pressure;Samples;Min_cycle;Max_cycle;Signal;HPM_P1;HPM_P2
2023/01/14 00:00:17;;;;;;;1.52;1.13;;;7.90;99.90;;;;;;5092595;28;20050;-70
2023/01/14 00:02:43;;;;;;;0.10;0.10;;;7.90;99.90;;;;;;5102488;28;20090;-70
2023/01/14 00:05:09;;;;;;;0.10;0.10;;;7.90;99.90;;;;;;5109077;28;20079;-70
2023/01/14 00:07:35;;;;;;;0.45;0.45;;;7.90;99.90;;;;;;5088613;28;20077;-71
2023/01/14 00:10:01;;;;;;;0.10;0.10;;;8.00;99.90;;;;;;5088222;28;20050;-70
2023/01/14 00:12:27;;;;;;;0.65;0.65;;;8.00;99.90;;;;;;5084231;28;20130;-70
2023/01/14 00:14:53;;;;;;;0.82;0.22;;;8.00;99.90;;;;;;5088756;28;20119;-71
2023/01/14 00:17:18;;;;;;;5.40;1.15;;;8.00;99.90;;;;;;5085440;28;20039;-71
2023/01/14 00:19:44;;;;;;;2.20;2.10;;;8.10;99.90;;;;;;5099067;27;20551;-70
2023/01/14 00:22:10;;;;;;;0.10;0.10;;;8.10;99.90;;;;;;5090657;28;20048;-70
2023/01/14 00:24:36;;;;;;;0.10;0.10;;;8.00;99.90;;;;;;5090419;27;20048;-70
2023/01/14 00:27:01;;;;;;;27.02;3.22;;;8.10;99.90;;;;;;5080961;28;20040;-71
2023/01/14 00:29:33;;;;;;;0.57;0.57;;;8.10;99.90;;;;;;5078706;28;20126;-70
2023/01/14 00:32:04;;;;;;;0.10;0.10;;;8.10;99.90;;;;;;5108215;28;20048;-70
2023/01/14 00:34:32;;;;;;;0.10;0.10;;;8.10;99.90;;;;;;5107255;28;20054;-71
2023/01/14 00:36:58;;;;;;;0.65;0.57;;;8.10;99.90;;;;;;5092561;28;20036;-71
2023/01/14 00:39:24;;;;;;;0.10;0.10;;;8.10;99.90;;;;;;5084106;28;20048;-71
2023/01/14 00:41:51;;;;;;;0.52;0.52;;;8.10;99.90;;;;;;5087794;28;20040;-71
2023/01/14 00:44:19;;;;;;;0.13;0.13;;;8.10;99.90;;;;;;5103835;28;20027;-73
2023/01/14 00:46:45;;;;;;;0.03;0.03;;;8.10;99.90;;;;;;5090473;28;20492;-72
2023/01/14 00:49:19;;;;;;;2.03;1.10;;;8.10;99.90;;;;;;5088400;28;20071;-72
2023/01/14 00:51:45;;;;;;;0.20;0.20;;;8.10;99.90;;;;;;5070874;28;20047;-71
2023/01/14 00:54:10;;;;;;;0.55;0.55;;;8.20;99.90;;;;;;5092773;28;20054;-71
2023/01/14 00:56:36;;;;;;;0.10;0.10;;;8.10;99.90;;;;;;5088147;28;20039;-71
2023/01/14 00:59:02;;;;;;;0.10;0.10;;;8.10;99.90;;;;;;5087235;28;20862;-71
2023/01/14 01:01:28;;;;;;;0.47;0.47;;;8.10;99.90;;;;;;5086960;28;20123;-71
2023/01/14 01:03:56;;;;;;;1.23;1.20;;;8.20;99.90;;;;;;5088271;28;20505;-72
2023/01/14 01:06:23;;;;;;;1.33;1.15;;;8.20;99.90;;;;;;5089329;28;20055;-72
2023/01/14 01:08:49;;;;;;;0.10;0.10;;;8.20;99.90;;;;;;5089098;28;20510;-71
2023/01/14 01:11:16;;;;;;;0.50;0.50;;;8.20;99.90;;;;;;5082658;28;20039;-72
2023/01/14 01:13:42;;;;;;;0.10;0.10;;;8.20;99.90;;;;;;5106451;28;20043;-71
2023/01/14 01:16:16;;;;;;;1.90;1.75;;;8.20;99.90;;;;;;5097578;28;20047;-71
2023/01/14 01:18:43;;;;;;;1.80;0.80;;;8.10;99.90;;;;;;5081863;28;20891;-71
2023/01/14 01:21:12;;;;;;;0.10;0.10;;;8.10;99.90;;;;;;5089482;28;20074;-71
2023/01/14 01:23:41;;;;;;;0.20;0.20;;;8.10;99.90;;;;;;5108531;28;20039;-71
2023/01/14 01:26:11;;;;;;;0.65;0.57;;;8.20;99.90;;;;;;5097085;28;20042;-71
2023/01/14 01:28:37;;;;;;;1.23;0.95;;;8.10;99.90;;;;;;5104024;28;20119;-71
2023/01/14 01:31:06;;;;;;;0.10;0.10;;;8.10;99.90;;;;;;5102294;28;20115;-71
2023/01/14 01:33:32;;;;;;;0.45;0.45;;;8.10;99.90;;;;;;5102103;28;20047;-71
2023/01/14 01:36:04;;;;;;;1.80;1.70;;;8.20;99.90;;;;;;5106879;28;20110;-71
2023/01/14 01:38:31;;;;;;;0.28;0.28;;;8.10;99.90;;;;;;5075668;28;20043;-72
2023/01/14 01:40:57;;;;;;;0.20;0.20;;;8.20;99.90;;;;;;5099817;28;20042;-71
2023/01/14 01:43:26;;;;;;;1.42;1.35;;;8.20;99.90;;;;;;5104662;28;20048;-74
2023/01/14 01:45:52;;;;;;;0.10;0.10;;;8.20;99.90;;;;;;5104753;28;20036;-71
2023/01/14 01:48:26;;;;;;;1.55;1.42;;;8.20;99.90;;;;;;5091183;28;20052;-71
2023/01/14 01:51:05;;;;;;;0.10;0.10;;;8.20;99.90;;;;;;5087459;28;20129;-71
2023/01/14 01:53:39;;;;;;;0.40;0.40;;;8.20;99.90;;;;;;5088249;28;20040;-72
2023/01/14 01:56:07;;;;;;;0.22;0.22;;;8.10;99.90;;;;;;5095233;28;20521;-71
2023/01/14 01:58:34;;;;;;;0.00;0.00;;;8.10;99.90;;;;;;5095291;28;20044;-71
2023/01/14 02:01:01;;;;;;;1.02;0.95;;;8.10;99.90;;;;;;5072843;28;20044;-71
2023/01/14 02:03:35;;;;;;;0.63;0.63;;;8.10;99.90;;;;;;5077090;28;20044;-71
2023/01/14 02:06:01;;;;;;;;;;;8.10;99.90;;;;;;5099190;28;20039;-71
2023/01/14 02:08:27;;;;;;;0.10;0.10;;;8.10;99.90;;;;;;5112009;28;20618;-71
2023/01/14 02:11:19;;;;;;;1.38;1.27;;;8.10;99.90;;;;;;5091500;28;20480;-71
2023/01/14 02:14:03;;;;;;;0.10;0.10;;;8.10;99.90;;;;;;5092357;28;20062;-71
2023/01/14 02:16:41;;;;;;;0.10;0.10;;;8.10;99.90;;;;;;5098561;28;20514;-71
2023/01/14 02:19:23;;;;;;;0.08;0.08;;;8.10;99.90;;;;;;5098624;27;20114;-71
2023/01/14 02:22:12;;;;;;;5.18;2.08;;;8.10;99.90;;;;;;5111623;28;20093;-71
2023/01/14 02:25:00;;;;;;;0.10;0.10;;;8.00;99.90;;;;;;5071829;28;20131;-71
2023/01/14 02:27:43;;;;;;;0.10;0.10;;;8.00;99.90;;;;;;5105981;28;20147;-71
2023/01/14 02:30:12;;;;;;;0.50;0.50;;;8.00;99.90;;;;;;5091297;28;20056;-71
2023/01/14 02:32:51;;;;;;;0.10;0.10;;;8.00;99.90;;;;;;5074634;28;20059;-71
2023/01/14 02:35:39;;;;;;;0.50;0.50;;;8.00;99.90;;;;;;5097668;28;20130;-71
2023/01/14 02:38:17;;;;;;;0.10;0.10;;;8.00;99.90;;;;;;5105038;28;20106;-71
2023/01/14 02:40:51;;;;;;;0.43;0.43;;;8.00;99.90;;;;;;5111029;28;20047;-71
2023/01/14 02:46:38;;;;;;;41.22;3.17;;;8.00;99.90;;;;;;5094387;28;20056;-71
2023/01/14 02:49:07;;;;;;;2.05;0.85;;;8.00;99.90;;;;;;5089557;28;20201;-71
2023/01/14 02:51:34;;;;;;;0.28;0.28;;;8.00;99.90;;;;;;5104728;27;20043;-70
2023/01/14 02:53:59;;;;;;;0.20;0.20;;;8.00;99.90;;;;;;5096906;27;20043;-71
2023/01/14 02:56:26;;;;;;;0.43;0.43;;;8.00;99.90;;;;;;5098715;28;20050;-71
2023/01/14 02:59:25;;;;;;;0.65;0.65;;;8.00;99.90;;;;;;5091858;28;20058;-70
2023/01/14 03:02:12;;;;;;;0.00;0.00;;;7.90;99.90;;;;;;5102856;27;20040;-72
2023/01/14 03:04:38;;;;;;;0.63;0.63;;;7.90;99.90;;;;;;5092254;28;20071;-71
2023/01/14 03:07:06;;;;;;;0.10;0.10;;;7.80;99.90;;;;;;5106589;28;20479;-71
2023/01/14 03:09:40;;;;;;;0.80;0.80;;;7.70;99.90;;;;;;5110024;28;20115;-71
2023/01/14 03:12:21;;;;;;;0.10;0.10;;;7.70;99.90;;;;;;5101137;28;20096;-71
2023/01/14 03:15:07;;;;;;;0.00;0.00;;;7.60;99.90;;;;;;5093175;28;20036;-71
2023/01/14 03:17:45;;;;;;;2.08;1.42;;;7.60;99.90;;;;;;5078603;28;20374;-71
2023/01/14 03:20:42;;;;;;;1.55;1.08;;;7.60;99.90;;;;;;5088893;28;20035;-71
2023/01/14 03:23:15;;;;;;;0.65;0.65;;;7.40;99.90;;;;;;5084152;28;20615;-71
2023/01/14 03:25:45;;;;;;;0.05;0.05;;;7.40;99.90;;;;;;5090071;28;20469;-71
2023/01/14 03:28:16;;;;;;;0.10;0.10;;;7.40;99.90;;;;;;5096813;28;20075;-71
2023/01/14 03:30:47;;;;;;;0.20;0.20;;;7.30;99.90;;;;;;5080493;28;20047;-71
2023/01/14 03:33:31;;;;;;;0.00;0.00;;;7.20;99.90;;;;;;5081968;28;20476;-70
2023/01/14 03:35:58;;;;;;;0.10;0.10;;;7.20;99.90;;;;;;5089491;28;20475;-72
2023/01/14 03:38:29;;;;;;;0.30;0.30;;;7.20;99.90;;;;;;5071268;28;20036;-71
2023/01/14 03:40:59;;;;;;;0.10;0.10;;;7.10;99.90;;;;;;5086567;28;20132;-71
2023/01/14 03:43:36;;;;;;;3.60;3.30;;;7.10;99.90;;;;;;5092470;28;20047;-71
2023/01/14 03:46:03;;;;;;;0.30;0.30;;;7.10;99.90;;;;;;5101218;28;20750;-70
2023/01/14 03:48:29;;;;;;;0.10;0.10;;;7.00;99.90;;;;;;5094664;28;20052;-71
2023/01/14 03:51:12;;;;;;;0.00;0.00;;;6.90;99.90;;;;;;5109997;28;20058;-71
2023/01/14 03:53:47;;;;;;;0.10;0.10;;;6.90;99.90;;;;;;5070789;28;20549;-71
2023/01/14 03:56:36;;;;;;;0.10;0.10;;;6.90;99.90;;;;;;5085714;28;20059;-70
2023/01/14 03:59:11;;;;;;;0.20;0.20;;;6.90;99.90;;;;;;5100621;28;20039;-70
2023/01/14 04:01:50;;;;;;;0.10;0.10;;;6.80;99.90;;;;;;5106222;28;20042;-70
2023/01/14 04:04:17;;;;;;;0.10;0.10;;;6.80;99.90;;;;;;5089255;28;20130;-70
2023/01/14 04:06:43;;;;;;;10.05;2.47;;;6.80;99.90;;;;;;5091429;28;20059;-71
2023/01/14 04:09:09;;;;;;;0.10;0.10;;;6.80;99.90;;;;;;5089635;28;20047;-70
2023/01/14 04:11:36;;;;;;;0.30;0.30;;;6.80;99.90;;;;;;5089854;28;20079;-70
2023/01/14 04:16:47;;;;;;;0.10;0.10;;;6.80;99.90;;;;;;5098310;28;20079;-71
2023/01/14 04:19:13;;;;;;;0.00;0.00;;;6.70;99.90;;;;;;5109218;28;20083;-70
2023/01/14 04:21:39;;;;;;;0.10;0.10;;;6.80;99.90;;;;;;5089808;28;20047;-71
2023/01/14 04:24:05;;;;;;;0.10;0.10;;;6.70;99.90;;;;;;5078042;28;20050;-71
2023/01/14 04:26:31;;;;;;;0.20;0.20;;;6.70;99.90;;;;;;5109301;28;20050;-70
2023/01/14 04:28:57;;;;;;;0.10;0.10;;;6.70;99.90;;;;;;5107152;28;20039;-71
2023/01/14 04:31:23;;;;;;;0.22;0.22;;;6.70;99.90;;;;;;5085780;28;20135;-71
2023/01/14 04:33:49;;;;;;;0.47;0.47;;;6.70;99.90;;;;;;5088793;28;20100;-71
2023/01/14 04:36:14;;;;;;;1.08;0.98;;;6.70;99.90;;;;;;5102519;28;20036;-70
2023/01/14 04:38:40;;;;;;;0.70;0.57;;;6.70;99.90;;;;;;5101359;28;20032;-70
2023/01/14 04:41:06;;;;;;;0.03;0.03;;;6.70;99.90;;;;;;5100254;28;20047;-70
2023/01/14 04:43:31;;;;;;;0.10;0.10;;;6.60;99.90;;;;;;5089289;28;20043;-71
2023/01/14 04:45:57;;;;;;;1.02;0.50;;;6.70;99.90;;;;;;5081483;28;20034;-71
2023/01/14 04:48:24;;;;;;;3.58;1.77;;;6.70;99.90;;;;;;5083032;28;20146;-70
2023/01/14 04:50:50;;;;;;;0.90;0.90;;;6.70;99.90;;;;;;5080455;28;20044;-70
2023/01/14 04:53:20;;;;;;;0.52;0.52;;;6.70;99.90;;;;;;5083507;28;20040;-71
2023/01/14 04:55:47;;;;;;;6.50;1.45;;;6.80;99.90;;;;;;5068688;28;20040;-71
2023/01/14 04:58:15;;;;;;;3.53;1.05;;;6.80;99.90;;;;;;5069007;28;20558;-70
2023/01/14 05:00:42;;;;;;;0.10;0.10;;;6.80;99.90;;;;;;5088870;28;20267;-71
2023/01/14 05:03:10;;;;;;;1.02;1.02;;;6.80;99.90;;;;;;5070736;28;20036;-71
2023/01/14 05:05:36;;;;;;;0.20;0.20;;;6.80;99.90;;;;;;5066773;28;20087;-71
2023/01/14 05:08:04;;;;;;;18.00;2.38;;;6.80;99.90;;;;;;5068301;28;20244;-71
2023/01/14 05:10:31;;;;;;;4.38;1.75;;;6.90;99.90;;;;;;5082390;28;20044;-71
2023/01/14 05:12:56;;;;;;;0.10;0.10;;;6.80;99.90;;;;;;5067674;28;20044;-71
2023/01/14 05:15:27;;;;;;;0.10;0.10;;;6.80;99.90;;;;;;5080739;28;20079;-71
2023/01/14 05:17:54;;;;;;;2.38;2.17;;;6.90;99.90;;;;;;5067671;28;20543;-71
2023/01/14 05:20:21;;;;;;;1.55;0.85;;;7.00;99.90;;;;;;5067336;28;20049;-71
2023/01/14 05:22:47;;;;;;;0.68;0.68;;;6.90;99.90;;;;;;5066517;28;20040;-71
2023/01/14 05:25:13;;;;;;;1.10;1.10;;;7.00;99.90;;;;;;5071227;28;20139;-70
2023/01/14 05:27:39;;;;;;;0.65;0.65;;;6.90;99.90;;;;;;5080524;28;20043;-70
2023/01/14 05:30:05;;;;;;;0.55;0.50;;;7.00;99.90;;;;;;5082485;28;20044;-70
2023/01/14 05:32:31;;;;;;;0.10;0.10;;;7.00;99.90;;;;;;5071339;28;20072;-71
2023/01/14 05:34:57;;;;;;;0.10;0.10;;;7.00;99.90;;;;;;5069614;28;20052;-71
2023/01/14 05:37:22;;;;;;;0.50;0.50;;;7.00;99.90;;;;;;5070292;28;20110;-71
2023/01/14 05:39:48;;;;;;;0.10;0.10;;;7.00;99.90;;;;;;5078059;28;20040;-71
2023/01/14 05:47:43;;;;;;;0.10;0.10;;;7.00;99.90;;;;;;5088114;28;20063;-70
2023/01/14 05:50:10;;;;;;;0.35;0.32;;;7.10;99.90;;;;;;5088174;28;20047;-70
2023/01/14 05:52:36;;;;;;;0.10;0.10;;;7.00;99.90;;;;;;5099017;28;20043;-71
2023/01/14 05:55:02;;;;;;;0.10;0.10;;;6.90;99.90;;;;;;5087207;28;20051;-71
2023/01/14 05:57:28;;;;;;;0.10;0.10;;;7.00;99.90;;;;;;5095005;28;20047;-71
2023/01/14 05:59:54;;;;;;;0.10;0.10;;;6.90;99.90;;;;;;5094583;27;20051;-70
2023/01/14 06:07:48;;;;;;;0.10;0.10;;;6.90;99.90;;;;;;5108582;27;20050;-71
2023/01/14 06:10:14;;;;;;;0.50;0.50;;;6.90;99.90;;;;;;5091780;28;20043;-70
2023/01/14 06:13:06;;;;;;;0.47;0.47;;;6.90;99.90;;;;;;5096667;27;20032;-71
2023/01/14 06:15:35;;;;;;;0.90;0.85;;;6.90;99.90;;;;;;5091865;28;20048;-71
2023/01/14 06:18:13;;;;;;;2.38;2.17;;;6.80;99.90;;;;;;5094913;28;20036;-70
2023/01/14 06:20:39;;;;;;;0.45;0.45;;;6.90;99.90;;;;;;5091656;28;20044;-71
2023/01/14 06:23:05;;;;;;;3.22;1.58;;;6.90;99.90;;;;;;5079909;28;20039;-71
2023/01/14 06:25:32;;;;;;;1.02;0.95;;;6.90;99.90;;;;;;5111766;28;20440;-71
2023/01/14 06:28:00;;;;;;;0.30;0.30;;;6.80;99.90;;;;;;5107182;28;20040;-71
2023/01/14 06:30:26;;;;;;;0.52;0.52;;;6.80;99.90;;;;;;5090051;28;20065;-71
2023/01/14 06:32:52;;;;;;;0.20;0.20;;;6.80;99.90;;;;;;5110362;28;20117;-71
2023/01/14 06:35:17;;;;;;;0.28;0.28;;;6.80;99.90;;;;;;5097708;28;20075;-71
2023/01/14 06:37:44;;;;;;;0.50;0.50;;;6.80;99.90;;;;;;5088555;28;20032;-71
2023/01/14 06:40:10;;;;;;;0.38;0.38;;;6.80;99.90;;;;;;5091036;28;20518;-71
2023/01/14 06:42:36;;;;;;;0.10;0.10;;;6.80;99.90;;;;;;5090001;28;20047;-71
2023/01/14 06:45:02;;;;;;;0.22;0.22;;;6.80;99.90;;;;;;5083995;28;20474;-71
2023/01/14 06:47:28;;;;;;;0.15;0.15;;;6.80;99.90;;;;;;5108050;28;20051;-71
2023/01/14 06:49:54;;;;;;;0.10;0.10;;;6.80;99.90;;;;;;5110219;28;20399;-71
2023/01/14 06:52:21;;;;;;;2.40;1.23;;;6.80;99.90;;;;;;5094494;28;20085;-71
2023/01/14 06:54:47;;;;;;;1.17;1.10;;;6.80;99.90;;;;;;5089133;28;20082;-71
2023/01/14 06:57:13;;;;;;;10.65;3.00;;;6.80;99.90;;;;;;5085353;28;20449;-70
2023/01/14 06:59:39;;;;;;;0.20;0.20;;;6.80;99.90;;;;;;5098198;28;20047;-70
2023/01/14 07:02:05;;;;;;;0.10;0.10;;;6.80;99.90;;;;;;5089102;28;20138;-70
2023/01/14 07:04:31;;;;;;;0.10;0.10;;;6.80;99.90;;;;;;5109247;28;20104;-70
2023/01/14 07:06:57;;;;;;;0.47;0.47;;;6.90;99.90;;;;;;5088773;28;20047;-70
2023/01/14 07:09:22;;;;;;;0.60;0.60;;;6.90;99.90;;;;;;5110158;28;20075;-70
2023/01/14 07:11:48;;;;;;;0.73;0.73;;;6.90;99.90;;;;;;5095686;27;20061;-70
2023/01/14 07:14:13;;;;;;;7.70;2.92;;;6.90;99.90;;;;;;5082228;28;20040;-70
2023/01/14 07:16:39;;;;;;;39.05;1.95;;;6.90;99.90;;;;;;5108814;28;20044;-70
2023/01/14 07:19:05;;;;;;;1.20;1.20;;;6.90;99.90;;;;;;5104607;27;20423;-70
2023/01/14 07:21:30;;;;;;;0.30;0.30;;;6.80;99.90;;;;;;5089928;28;20046;-70
2023/01/14 07:23:56;;;;;;;6.18;2.05;;;6.80;99.90;;;;;;5085699;28;20453;-70
2023/01/14 07:26:22;;;;;;;0.10;0.10;;;6.90;99.90;;;;;;5094775;28;20051;-70
2023/01/14 07:28:47;;;;;;;2.20;2.10;;;6.90;99.90;;;;;;5089496;28;20055;-71
2023/01/14 07:31:13;;;;;;;0.93;0.90;;;6.90;99.90;;;;;;5098331;28;20115;-70
2023/01/14 07:33:39;;;;;;;4.78;1.75;;;6.90;99.90;;;;;;5085833;28;20044;-70
2023/01/14 07:36:05;;;;;;;0.40;0.40;;;6.90;99.90;;;;;;5089267;28;20043;-70
2023/01/14 07:38:30;;;;;;;1.65;1.27;;;6.90;99.90;;;;;;5088834;28;20051;-71
2023/01/14 07:40:57;;;;;;;0.55;0.55;;;6.90;99.90;;;;;;5109311;28;20040;-70
2023/01/14 07:43:22;;;;;;;1.55;0.98;;;6.90;99.90;;;;;;5080864;28;20056;-70
2023/01/14 07:45:48;;;;;;;0.00;0.00;;;6.90;99.90;;;;;;5093343;28;20038;-69
2023/01/14 07:48:14;;;;;;;0.80;0.77;;;6.90;99.90;;;;;;5092912;28;20047;-70
2023/01/14 07:50:40;;;;;;;0.10;0.10;;;6.90;99.90;;;;;;5103315;27;20043;-70
2023/01/14 07:53:05;;;;;;;0.20;0.20;;;6.90;99.90;;;;;;5081502;28;20043;-70
2023/01/14 07:55:35;;;;;;;2.75;1.45;;;6.90;99.90;;;;;;5091452;28;20039;-69
2023/01/14 07:58:00;;;;;;;0.10;0.10;;;6.90;99.90;;;;;;5094241;28;20114;-70
2023/01/14 08:00:26;;;;;;;0.30;0.30;;;6.90;99.90;;;;;;5097318;28;20126;-70
2023/01/14 08:02:52;;;;;;;2.22;2.08;;;6.90;99.90;;;;;;5076666;28;20102;-70
2023/01/14 08:05:18;;;;;;;0.10;0.10;;;6.80;99.90;;;;;;5093674;28;20032;-70
2023/01/14 08:07:43;;;;;;;0.30;0.30;;;6.90;99.90;;;;;;5083322;28;20044;-70
2023/01/14 08:10:10;;;;;;;0.00;0.00;;;6.90;99.90;;;;;;5097767;28;20071;-69
2023/01/14 08:12:36;;;;;;;0.57;0.57;;;6.80;99.90;;;;;;5098890;28;20422;-70
2023/01/14 08:15:04;;;;;;;0.75;0.75;;;6.90;99.90;;;;;;5096226;28;20043;-69
2023/01/14 08:17:30;;;;;;;0.10;0.10;;;6.90;99.90;;;;;;5083283;28;20165;-69
2023/01/14 08:19:56;;;;;;;1.67;1.23;;;6.80;99.90;;;;;;5090938;28;20048;-69
2023/01/14 08:22:22;;;;;;;0.10;0.10;;;6.80;99.90;;;;;;5088913;28;20048;-69
2023/01/14 08:24:48;;;;;;;0.38;0.38;;;6.90;99.90;;;;;;5101898;28;20876;-69
2023/01/14 08:27:14;;;;;;;0.10;0.10;;;6.80;99.90;;;;;;5105860;28;20083;-69
2023/01/14 08:29:39;;;;;;;0.20;0.20;;;6.80;99.90;;;;;;5087244;28;20051;-68
2023/01/14 08:32:05;;;;;;;0.10;0.10;;;6.80;99.90;;;;;;5093065;27;20040;-68
2023/01/14 08:34:31;;;;;;;0.73;0.73;;;6.80;99.90;;;;;;5088837;28;20054;-68
2023/01/14 08:36:56;;;;;;;0.20;0.20;;;6.80;99.90;;;;;;5107428;28;20136;-68
2023/01/14 08:39:22;;;;;;;0.30;0.30;;;6.90;99.90;;;;;;5098613;28;20048;-68
2023/01/14 08:41:48;;;;;;;0.10;0.10;;;6.80;99.90;;;;;;5084831;28;20039;-68
2023/01/14 08:44:13;;;;;;;0.10;0.10;;;6.80;99.90;;;;;;5092465;28;20051;-69
2023/01/14 08:46:41;;;;;;;0.75;0.75;;;6.80;99.90;;;;;;5095489;28;20046;-67
2023/01/14 08:49:09;;;;;;;0.68;0.60;;;6.80;99.90;;;;;;5092664;28;20044;-68
2023/01/14 08:51:35;;;;;;;0.00;0.00;;;6.80;99.90;;;;;;5071985;28;20062;-68
2023/01/14 08:54:01;;;;;;;0.10;0.10;;;6.80;99.90;;;;;;5105068;27;20398;-68
2023/01/14 08:56:27;;;;;;;0.10;0.10;;;6.90;99.90;;;;;;5085311;28;20399;-68
2023/01/14 08:58:53;;;;;;;0.38;0.38;;;6.90;99.90;;;;;;5085205;28;20040;-68
2023/01/14 09:01:19;;;;;;;0.10;0.10;;;6.80;99.90;;;;;;5101672;28;20559;-68
2023/01/14 09:03:48;;;;;;;0.10;0.10;;;6.80;99.90;;;;;;5099070;28;20055;-68
2023/01/14 09:06:16;;;;;;;0.10;0.10;;;6.80;99.90;;;;;;5095102;28;20062;-69
2023/01/14 09:17:07;;;;;;;0.75;0.75;;;6.90;99.90;;;;;;5096609;28;20120;-69
2023/01/14 09:19:49;;;;;;;0.10;0.10;;;6.90;99.90;;;;;;5078195;28;20089;-69
2023/01/14 09:22:19;;;;;;;0.22;0.22;;;6.90;99.90;;;;;;5072429;28;20051;-69
2023/01/14 09:24:45;;;;;;;0.40;0.40;;;6.90;99.90;;;;;;5097086;28;20074;-69
2023/01/14 09:27:10;;;;;;;0.10;0.10;;;6.90;99.90;;;;;;5076179;28;20071;-69
2023/01/14 09:29:36;;;;;;;0.30;0.30;;;6.90;99.90;;;;;;5090695;28;20368;-70
2023/01/14 09:32:02;;;;;;;0.75;0.75;;;6.90;99.90;;;;;;5082502;28;20400;-69
2023/01/14 09:34:27;;;;;;;0.10;0.10;;;6.90;99.90;;;;;;5094273;28;20032;-70
2023/01/14 09:36:56;;;;;;;0.25;0.25;;;6.90;99.90;;;;;;5080808;28;20040;-70
2023/01/14 09:39:22;;;;;;;3.35;1.95;;;6.90;99.90;;;;;;5097695;28;20498;-70
2023/01/14 09:41:57;;;;;;;0.30;0.30;;;6.90;99.90;;;;;;5076624;28;20130;-69
2023/01/14 09:44:24;;;;;;;0.32;0.32;;;6.90;99.90;;;;;;5095738;28;20050;-68
2023/01/14 09:46:51;;;;;;;0.73;0.73;;;6.90;99.90;;;;;;5091587;28;20043;-71
2023/01/14 09:49:26;;;;;;;0.10;0.10;;;6.90;99.90;;;;;;5099703;28;20050;-70
2023/01/14 09:52:31;;;;;;;0.20;0.20;;;6.90;99.90;;;;;;5078969;28;20047;-68
2023/01/14 09:55:36;;;;;;;0.10;0.10;;;6.90;99.90;;;;;;5097311;28;20147;-71
2023/01/14 09:58:12;;;;;;;0.10;0.10;;;6.90;99.90;;;;;;5078006;28;20059;-69
2023/01/14 10:00:40;;;;;;;0.10;0.10;;;6.90;99.90;;;;;;5095097;28;20377;-68
2023/01/14 10:03:20;;;;;;;0.20;0.20;;;7.00;99.90;;;;;;5092707;28;20044;-68
2023/01/14 10:05:58;;;;;;;0.10;0.10;;;7.00;99.90;;;;;;5092019;28;20051;-69
2023/01/14 10:08:27;;;;;;;0.10;0.10;;;7.00;99.90;;;;;;5087879;28;20131;-69
2023/01/14 10:10:54;;;;;;;0.40;0.40;;;7.10;99.90;;;;;;5090954;28;20059;-68
2023/01/14 10:13:25;;;;;;;0.10;0.10;;;7.10;99.90;;;;;;5079895;28;21017;-68
2023/01/14 10:16:09;;;;;;;0.10;0.10;;;7.10;99.90;;;;;;5077463;28;20376;-69
2023/01/14 10:18:47;;;;;;;0.10;0.10;;;7.10;99.90;;;;;;5090164;28;20405;-68
2023/01/14 10:21:46;;;;;;;0.52;0.52;;;7.10;99.90;;;;;;5085971;28;20044;-68
2023/01/14 10:24:18;;;;;;;0.75;0.75;;;7.10;99.90;;;;;;5090723;28;20044;-69
2023/01/14 10:26:46;;;;;;;0.10;0.10;;;7.20;99.90;;;;;;5072798;28;20044;-69
2023/01/14 10:29:18;;;;;;;0.10;0.10;;;7.20;99.90;;;;;;5086924;27;20062;-69
2023/01/14 10:32:00;;;;;;;0.10;0.10;;;7.20;99.90;;;;;;5075121;28;20050;-64
2023/01/14 10:34:38;;;;;;;0.10;0.10;;;7.30;99.90;;;;;;5079575;28;20528;-69
2023/01/14 10:37:05;;;;;;;0.10;0.10;;;7.30;99.90;;;;;;5099034;28;20047;-68
2023/01/14 10:39:31;;;;;;;0.10;0.10;;;7.30;99.90;;;;;;5098264;27;20062;-68
2023/01/14 10:42:01;;;;;;;1.10;1.10;;;7.30;99.90;;;;;;5097269;27;20127;-71
2023/01/14 10:44:39;;;;;;;0.03;0.03;;;7.40;99.90;;;;;;5096094;28;20044;-70
2023/01/14 10:47:12;;;;;;;0.10;0.10;;;7.40;99.90;;;;;;5083000;28;20455;-68
2023/01/14 10:49:44;;;;;;;8.85;0.95;;;7.40;99.90;;;;;;5098845;28;20039;-68
2023/01/14 10:52:25;;;;;;;0.00;0.00;;;7.40;99.90;;;;;;5098672;28;20514;-68
2023/01/14 10:55:06;;;;;;;0.10;0.10;;;7.40;99.90;;;;;;5099427;28;20450;-70
2023/01/14 10:57:36;;;;;;;0.10;0.10;;;7.40;99.90;;;;;;5091024;27;20044;-67
2023/01/14 11:00:07;;;;;;;0.20;0.20;;;7.40;99.90;;;;;;5098680;28;20050;-70
2023/01/14 11:02:48;;;;;;;0.10;0.10;;;7.40;99.90;;;;;;5081331;28;20050;-69
2023/01/14 11:05:35;;;;;;;0.10;0.10;;;7.40;99.90;;;;;;5080068;22;20059;-78
2023/01/14 11:08:25;;;;;;;0.10;0.10;;;7.40;99.90;;;;;;5045774;28;20079;-75
2023/01/14 11:11:00;;;;;;;0.20;0.20;;;7.50;99.90;;;;;;5058098;28;20577;-79
2023/01/14 11:13:44;;;;;;;0.10;0.10;;;7.50;99.90;;;;;;5055871;28;20049;-77
2023/01/14 11:16:21;;;;;;;0.10;0.10;;;7.50;99.90;;;;;;5038285;28;20077;-77
2023/01/14 11:18:51;;;;;;;1.23;1.13;;;7.50;99.90;;;;;;5058723;28;20053;-78
2023/01/14 11:21:20;;;;;;;0.10;0.10;;;7.50;99.90;;;;;;5056572;28;20037;-75
2023/01/14 11:23:53;;;;;;;0.10;0.10;;;7.60;99.90;;;;;;5058748;28;20052;-69
2023/01/14 11:26:24;;;;;;;0.10;0.10;;;7.60;99.90;;;;;;5039203;28;20124;-68
2023/01/14 11:28:52;;;;;;;0.00;0.00;;;7.60;99.90;;;;;;5022423;28;20044;-68
2023/01/14 11:31:35;;;;;;;0.05;0.05;;;7.60;99.90;;;;;;5054959;28;20426;-68
2023/01/14 11:34:01;;;;;;;0.52;0.52;;;7.60;99.90;;;;;;5038811;28;20053;-69
2023/01/14 11:36:33;;;;;;;0.10;0.10;;;7.60;99.90;;;;;;5047936;28;20055;-69
2023/01/14 11:39:00;;;;;;;0.10;0.10;;;7.70;99.90;;;;;;5044075;28;20139;-69
2023/01/14 11:41:32;;;;;;;0.10;0.10;;;7.70;99.90;;;;;;5032111;28;20155;-69
2023/01/14 11:44:23;;;;;;;0.00;0.00;;;7.70;99.90;;;;;;5061637;28;20136;-69
2023/01/14 11:47:12;;;;;;;0.47;0.47;;;7.70;99.90;;;;;;5047093;28;20084;-69
2023/01/14 11:49:37;;;;;;;0.00;0.00;;;7.70;99.90;;;;;;5057328;28;20045;-68
2023/01/14 11:52:06;;;;;;;0.00;0.00;;;7.70;99.90;;;;;;5040743;28;20043;-69
2023/01/14 11:54:37;;;;;;;0.10;0.10;;;7.70;99.90;;;;;;5064244;28;20044;-68
2023/01/14 11:57:05;;;;;;;0.10;0.10;;;7.80;99.90;;;;;;5068429;28;20137;-69
2023/01/14 11:59:37;;;;;;;0.10;0.10;;;7.80;99.90;;;;;;5066211;28;20049;-69
2023/01/14 12:02:30;;;;;;;0.10;0.10;;;7.80;99.90;;;;;;5059193;28;20049;-69
2023/01/14 12:05:15;;;;;;;0.10;0.10;;;7.80;99.90;;;;;;5058335;28;20076;-69
2023/01/14 12:07:52;;;;;;;0.10;0.10;;;7.90;99.90;;;;;;5042020;28;20064;-69
2023/01/14 12:10:35;;;;;;;0.08;0.08;;;7.90;99.90;;;;;;5067259;28;20144;-69
2023/01/14 12:19:40;;;;;;;0.10;0.10;;;8.00;99.90;;;;;;5047590;28;20523;-69
2023/01/14 12:22:18;;;;;;;0.10;0.10;;;8.10;99.90;;;;;;5036238;28;20060;-69
2023/01/14 12:24:50;;;;;;;0.45;0.45;;;8.10;99.90;;;;;;5054270;28;20056;-69
2023/01/14 12:27:58;;;;;;;0.00;0.00;;;8.20;99.90;;;;;;5068052;28;20059;-68
2023/01/14 12:30:47;;;;;;;0.10;0.10;;;8.20;99.90;;;;;;5062964;28;20507;-69
2023/01/14 12:33:31;;;;;;;0.93;0.90;;;8.30;99.90;;;;;;5055274;28;20510;-69
2023/01/14 12:36:07;;;;;;;0.10;0.10;;;8.30;99.90;;;;;;5048465;28;20040;-69
2023/01/14 12:46:56;;;;;;;0.57;0.52;;;8.40;99.90;;;;;;5039799;28;20502;-70
2023/01/14 12:49:22;;;;;;;0.10;0.10;;;8.50;99.90;;;;;;5059952;28;20041;-68
2023/01/14 12:51:48;;;;;;;0.45;0.45;;;8.50;99.90;;;;;;5041390;28;20040;-68
2023/01/14 12:54:27;;;;;;;0.10;0.10;;;8.60;99.90;;;;;;5046442;28;20454;-69
2023/01/14 12:56:55;;;;;;;0.10;0.10;;;8.60;99.90;;;;;;5043027;28;20044;-70
2023/01/14 12:59:35;;;;;;;0.10;0.10;;;8.60;99.90;;;;;;5043353;28;20514;-68
2023/01/14 13:02:17;;;;;;;0.10;0.10;;;8.70;99.90;;;;;;5055526;28;20127;-69
2023/01/14 13:05:09;;;;;;;0.00;0.00;;;8.80;99.90;;;;;;5032534;28;20053;-68
2023/01/14 13:08:00;;;;;;;0.10;0.10;;;8.80;99.90;;;;;;5005694;28;20639;-68
2023/01/14 13:10:33;;;;;;;0.05;0.05;;;8.80;99.90;;;;;;5007032;28;20867;-68
2023/01/14 13:13:01;;;;;;;0.10;0.10;;;8.90;99.90;;;;;;5023281;28;20049;-68
2023/01/14 13:15:32;;;;;;;0.10;0.10;;;8.90;99.90;;;;;;5017914;28;20053;-69
2023/01/14 13:18:00;;;;;;;0.10;0.10;;;9.00;99.90;;;;;;5014949;28;20119;-68
2023/01/14 13:20:47;;;;;;;0.10;0.10;;;9.00;99.90;;;;;;5011956;28;20046;-69
2023/01/14 13:23:36;;;;;;;0.00;0.00;;;9.10;99.90;;;;;;5021997;28;20056;-68
2023/01/14 13:26:17;;;;;;;0.00;0.00;;;9.20;99.90;;;;;;5013456;28;20041;-68
2023/01/14 13:29:14;;;;;;;0.50;0.50;;;9.30;99.90;;;;;;5014438;28;20140;-69
2023/01/14 13:31:39;;;;;;;0.10;0.10;;;9.30;99.90;;;;;;5022853;28;20049;-69
2023/01/14 13:34:28;;;;;;;0.10;0.10;;;9.40;99.90;;;;;;5023495;28;20053;-69
2023/01/14 13:37:13;;;;;;;0.00;0.00;;;9.40;99.90;;;;;;5008133;28;20045;-69
2023/01/14 13:39:48;;;;;;;0.63;0.63;;;9.40;99.90;;;;;;5010002;28;20042;-68
2023/01/14 13:42:20;;;;;;;0.10;0.10;;;9.40;99.90;;;;;;5024559;28;20064;-69
2023/01/14 13:44:48;;;;;;;0.43;0.43;;;9.40;99.90;;;;;;5026668;28;20076;-69
2023/01/14 13:47:36;;;;;;;0.05;0.05;;;9.40;99.90;;;;;;5027042;28;20041;-69
2023/01/14 13:50:24;;;;;;;0.38;0.38;;;9.40;99.90;;;;;;5026904;28;20045;-69
2023/01/14 13:53:04;;;;;;;0.10;0.10;;;9.50;99.90;;;;;;5021318;28;20515;-68
2023/01/14 13:55:36;;;;;;;0.10;0.10;;;9.50;99.90;;;;;;5019273;28;20078;-69
2023/01/14 13:58:15;;;;;;;0.10;0.10;;;9.40;99.90;;;;;;5022110;28;20045;-68